메인 페이지
METAR-TAF:

METAR-TAF

공항 :

호바트, 오클라호마, 미국

위도: 34-59-22N, 경도: 099-03-09W, 고도: 476m

현재 날씨관측

예보는 20 시간 17분 전, 02:53시(UTC)에 발표되었습니다.
12kt
온도 19°C
습도 83%
기압 1017 hPa
시정: 16.1km
고도 2200ft 상공 흐림
뇌우

METAR: KHBR 230253Z AUTO 08012KT 10SM TS OVC022 19/16 A3002 RMK AO2 LTG DSNT SW-NW RAB01E20 TSB52 SLP153 P0001 60001 T01890161 56004

시각: 18:10 (23:10 UTC)


TAF: 누락

4,000개 이상의 공항 관측 자료 및 예보 (METAR 및 TAF 보고).

지도상에서 검색 가능한 기상관측소가 노란 점과 빨간 점으로 표시되어 있습니다.

기상관측소 명을 보려면 표시 위로 마우스를 이동하세요.

날씨 관측과 예보를 보려면 클릭하세요.

지도 변경 : 확대하려면 엑스 표시가 있는 녹색 버튼, 축소하려면 빼기 표시가 있는 녹색 버튼, 다음 페이지의 지도를 보려면 녹색 화살표를 클릭하세요.


METAR-TAF: